createdAt,value
2024-02-14T00:01:38.639Z,5.03
2024-02-14T00:06:43.376Z,4.00
2024-02-14T00:11:49.483Z,3.40
2024-02-14T00:16:54.029Z,4.33
2024-02-14T00:21:58.533Z,3.90
2024-02-14T00:27:05.104Z,4.50
2024-02-14T00:32:09.904Z,4.20
2024-02-14T00:37:15.343Z,3.53
2024-02-14T00:42:21.491Z,4.33
2024-02-14T00:47:26.531Z,5.57
2024-02-14T00:52:31.177Z,3.97
2024-02-14T00:57:37.258Z,5.03
2024-02-14T01:02:41.906Z,4.63
2024-02-14T01:07:48.108Z,5.10
2024-02-14T01:12:54.126Z,5.17
2024-02-14T01:17:58.721Z,6.13
2024-02-14T01:23:03.412Z,4.27
2024-02-14T01:28:10.417Z,5.03
2024-02-14T01:33:15.247Z,4.07
2024-02-14T01:38:20.066Z,5.63
2024-02-14T01:43:26.021Z,2.87
2024-02-14T01:48:30.582Z,3.77
2024-02-14T01:53:35.424Z,4.43
2024-02-14T01:58:42.581Z,3.80
2024-02-14T02:03:47.312Z,3.60
2024-02-14T02:08:52.449Z,5.07
2024-02-14T02:13:58.513Z,3.97
2024-02-14T02:19:03.209Z,4.13
2024-02-14T02:24:09.767Z,2.77
2024-02-14T02:29:14.223Z,4.87
2024-02-14T02:34:19.781Z,3.87
2024-02-14T02:39:26.309Z,3.67
2024-02-14T02:44:30.936Z,2.90
2024-02-14T02:49:35.651Z,5.10
2024-02-14T02:54:42.563Z,3.73
2024-02-14T02:59:49.702Z,3.37
2024-02-14T03:04:54.696Z,3.33
2024-02-14T03:10:00.867Z,3.93
2024-02-14T03:15:07.692Z,4.63
2024-02-14T03:20:16.975Z,3.43
2024-02-14T03:25:25.527Z,3.73
2024-02-14T03:30:31.594Z,5.83
2024-02-14T03:35:36.102Z,4.47
2024-02-14T03:40:43.651Z,3.63
2024-02-14T03:45:48.299Z,4.90
2024-02-14T03:50:52.821Z,5.27
2024-02-14T03:55:58.796Z,4.57
2024-02-14T04:01:03.990Z,5.90
2024-02-14T04:06:08.767Z,4.80
2024-02-14T04:11:15.580Z,5.13
2024-02-14T04:16:23.475Z,4.80
2024-02-14T04:21:28.048Z,3.90
2024-02-14T04:26:34.121Z,5.13
2024-02-14T04:31:38.576Z,6.87
2024-02-14T04:36:43.312Z,6.37
2024-02-14T04:41:56.727Z,6.87
2024-02-14T04:47:06.820Z,8.57
2024-02-14T04:52:11.404Z,7.37
2024-02-14T04:57:17.467Z,8.60
2024-02-14T05:02:22.767Z,8.50
2024-02-14T05:07:27.381Z,7.63
2024-02-14T05:12:33.326Z,6.93
2024-02-14T05:17:37.804Z,8.47
2024-02-14T05:22:42.390Z,7.83
2024-02-14T05:27:48.731Z,7.87
2024-02-14T05:32:54.291Z,9.43
2024-02-14T05:37:59.056Z,5.60
2024-02-14T05:43:05.385Z,8.10
2024-02-14T05:48:10.618Z,6.83
2024-02-14T05:53:15.279Z,6.53
2024-02-14T05:58:21.221Z,8.33
2024-02-14T06:03:26.259Z,6.37
2024-02-14T06:08:30.758Z,7.07
2024-02-14T06:13:37.536Z,6.63
2024-02-14T06:18:42.552Z,8.10
2024-02-14T06:23:48.494Z,10.07
2024-02-14T06:28:56.269Z,7.47
2024-02-14T06:34:00.963Z,8.10
2024-02-14T06:39:05.781Z,9.60
2024-02-14T06:44:11.863Z,7.43
2024-02-14T06:49:16.593Z,8.17
2024-02-14T06:54:21.475Z,8.47
2024-02-14T06:59:27.898Z,8.13
2024-02-14T07:04:32.598Z,7.43
2024-02-14T07:09:38.822Z,9.53
2024-02-14T07:14:44.883Z,11.07
2024-02-14T07:19:51.653Z,9.77
2024-02-14T07:24:56.777Z,9.57
2024-02-14T07:30:03.022Z,10.80
2024-02-14T07:35:08.641Z,12.77
2024-02-14T07:40:16.832Z,9.93
2024-02-14T07:45:24.323Z,9.80
2024-02-14T07:50:30.121Z,12.80
2024-02-14T07:55:34.840Z,9.20
2024-02-14T08:00:40.969Z,12.23
2024-02-14T08:05:45.548Z,13.53
2024-02-14T08:10:50.200Z,12.23
2024-02-14T08:15:56.198Z,12.17
2024-02-14T08:21:00.747Z,12.87
2024-02-14T08:26:11.952Z,10.50
2024-02-14T08:31:17.951Z,9.80
2024-02-14T08:36:22.917Z,9.10
2024-02-14T08:41:27.639Z,9.80
2024-02-14T08:46:33.670Z,8.87
2024-02-14T08:51:38.290Z,11.60
2024-02-14T08:56:42.845Z,11.27
2024-02-14T09:01:48.840Z,9.93
2024-02-14T09:06:53.395Z,9.17
2024-02-14T09:11:57.959Z,7.50
2024-02-14T09:17:03.881Z,9.43
2024-02-14T09:22:08.477Z,11.33
2024-02-14T09:27:15.354Z,8.63
2024-02-14T09:32:21.602Z,8.17
2024-02-14T09:37:26.650Z,10.07
2024-02-14T09:42:39.084Z,10.20
2024-02-14T09:47:46.449Z,9.30
2024-02-14T09:52:51.380Z,11.77
2024-02-14T09:57:57.485Z,9.40
2024-02-14T10:03:03.542Z,6.03
2024-02-14T10:08:08.910Z,7.77
2024-02-14T10:13:13.478Z,7.10
2024-02-14T10:18:19.616Z,6.40
2024-02-14T10:23:24.275Z,7.03
2024-02-14T10:28:33.460Z,8.70
2024-02-14T10:33:45.322Z,8.30
2024-02-14T10:38:51.682Z,6.00
2024-02-14T10:43:56.398Z,7.10
2024-02-14T10:49:06.567Z,6.03
2024-02-14T10:54:14.442Z,6.30
2024-02-14T10:59:21.435Z,7.83
2024-02-14T11:04:27.685Z,5.50
2024-02-14T11:09:38.713Z,8.10
2024-02-14T11:14:46.986Z,4.97
2024-02-14T11:19:53.601Z,3.60
2024-02-14T11:24:58.422Z,6.03
2024-02-14T11:30:05.398Z,5.90
2024-02-14T11:35:15.258Z,4.63
2024-02-14T11:40:23.302Z,5.87
2024-02-14T11:45:27.911Z,5.70
2024-02-14T11:50:34.113Z,4.37
2024-02-14T11:55:40.399Z,5.87
2024-02-14T12:00:46.010Z,5.53
2024-02-14T12:05:54.540Z,4.40
2024-02-14T12:10:59.263Z,6.43
2024-02-14T12:16:03.853Z,5.97
2024-02-14T12:21:10.713Z,4.77
2024-02-14T12:26:19.006Z,5.03
2024-02-14T12:31:27.353Z,5.07
2024-02-14T12:36:34.647Z,7.40
2024-02-14T12:41:42.074Z,5.57
2024-02-14T12:46:46.716Z,4.27
2024-02-14T12:51:52.768Z,4.43
2024-02-14T12:56:57.381Z,7.80
2024-02-14T13:02:02.500Z,7.63
2024-02-14T13:07:08.637Z,7.23
2024-02-14T13:12:13.229Z,5.73
2024-02-14T13:17:17.919Z,5.90
2024-02-14T13:22:24.933Z,4.23
2024-02-14T13:27:29.533Z,6.10
2024-02-14T13:32:34.081Z,6.20
2024-02-14T13:37:40.121Z,6.57
2024-02-14T13:42:45.188Z,9.50
2024-02-14T13:47:49.845Z,8.00
2024-02-14T13:52:56.134Z,8.03
2024-02-14T13:58:00.541Z,4.93
2024-02-14T14:03:06.516Z,7.47
2024-02-14T14:08:12.593Z,5.70
2024-02-14T14:13:17.907Z,12.00
2024-02-14T14:18:22.457Z,8.47
2024-02-14T14:23:28.599Z,7.70
2024-02-14T14:28:33.804Z,8.40
2024-02-14T14:33:38.644Z,8.50
2024-02-14T14:38:44.833Z,8.27
2024-02-14T14:43:51.099Z,8.90
2024-02-14T14:48:55.851Z,7.30
2024-02-14T14:54:02.094Z,7.67
2024-02-14T14:59:07.962Z,8.43
2024-02-14T15:04:12.507Z,6.77
2024-02-14T15:09:18.574Z,8.23
2024-02-14T15:14:23.362Z,9.33
2024-02-14T15:19:27.969Z,5.57
2024-02-14T15:24:36.663Z,8.00
2024-02-14T15:29:58.318Z,7.23
2024-02-14T15:35:03.002Z,7.40
2024-02-14T15:40:10.538Z,6.10
2024-02-14T15:45:18.469Z,5.73
2024-02-14T15:50:24.623Z,6.17
2024-02-14T15:55:31.883Z,5.33
2024-02-14T16:00:37.258Z,4.47
2024-02-14T16:05:41.826Z,8.10
2024-02-14T16:10:49.167Z,7.70
2024-02-14T16:15:53.767Z,7.67
2024-02-14T16:20:58.857Z,7.27
2024-02-14T16:26:05.671Z,7.27
2024-02-14T16:31:10.117Z,6.70
2024-02-14T16:36:14.548Z,8.07
2024-02-14T16:41:23.915Z,8.80
2024-02-14T16:46:28.570Z,4.63
2024-02-14T16:51:33.344Z,8.73
2024-02-14T16:56:39.395Z,5.83
2024-02-14T17:01:43.779Z,5.00
2024-02-14T17:06:48.253Z,5.20
2024-02-14T17:11:54.340Z,7.33
2024-02-14T17:17:01.420Z,8.83
2024-02-14T17:22:14.259Z,10.77
2024-02-14T17:27:27.015Z,9.20
2024-02-14T17:32:36.852Z,6.53
2024-02-14T17:37:45.127Z,8.67
2024-02-14T17:42:51.159Z,6.37
2024-02-14T17:47:56.308Z,6.10
2024-02-14T17:53:00.855Z,9.17
2024-02-14T17:58:07.097Z,7.50
2024-02-14T18:03:11.814Z,5.70
2024-02-14T18:08:16.285Z,6.17
2024-02-14T18:13:22.270Z,3.73
2024-02-14T18:18:26.838Z,5.60
2024-02-14T18:23:31.414Z,3.97
2024-02-14T18:28:37.495Z,7.60
2024-02-14T18:33:42.489Z,7.53
2024-02-14T18:38:47.519Z,4.50
2024-02-14T18:43:53.759Z,5.13
2024-02-14T18:48:58.906Z,6.47
2024-02-14T18:54:04.170Z,8.13
2024-02-14T18:59:10.919Z,5.80
2024-02-14T19:04:15.460Z,5.50
2024-02-14T19:09:20.462Z,6.43
2024-02-14T19:14:26.432Z,10.27
2024-02-14T19:19:32.493Z,6.07
2024-02-14T19:24:37.894Z,9.90
2024-02-14T19:29:44.056Z,6.33
2024-02-14T19:34:49.078Z,4.40
2024-02-14T19:39:54.330Z,6.33
2024-02-14T19:45:00.726Z,11.20
2024-02-14T19:50:09.266Z,7.37
2024-02-14T19:55:15.883Z,5.90
2024-02-14T20:00:22.517Z,6.93
2024-02-14T20:05:27.556Z,9.50
2024-02-14T20:10:32.421Z,7.53
2024-02-14T20:15:38.651Z,8.43
2024-02-14T20:20:43.352Z,6.87
2024-02-14T20:25:47.986Z,7.90
2024-02-14T20:30:55.201Z,5.63
2024-02-14T20:35:59.766Z,8.20
2024-02-14T20:41:04.419Z,5.73
2024-02-14T20:46:10.561Z,8.83
2024-02-14T20:51:15.089Z,5.87
2024-02-14T20:56:19.595Z,8.13
2024-02-14T21:01:25.664Z,8.23
2024-02-14T21:06:30.362Z,7.00
2024-02-14T21:11:35.154Z,7.77
2024-02-14T21:16:41.267Z,4.73
2024-02-14T21:21:45.740Z,6.40
2024-02-14T21:26:53.909Z,5.90
2024-02-14T21:32:00.040Z,6.60
2024-02-14T21:37:04.567Z,12.07
2024-02-14T21:42:10.201Z,9.00
2024-02-14T21:47:17.816Z,12.50
2024-02-14T21:52:22.405Z,6.70
2024-02-14T21:57:28.314Z,6.20
2024-02-14T22:02:34.491Z,8.80
2024-02-14T22:07:39.003Z,10.03
2024-02-14T22:12:44.356Z,5.57
2024-02-14T22:17:50.299Z,8.40
2024-02-14T22:22:55.214Z,5.70
2024-02-14T22:27:59.816Z,7.10
2024-02-14T22:33:06.935Z,14.27
2024-02-14T22:38:11.720Z,7.90
2024-02-14T22:43:16.368Z,7.17
2024-02-14T22:48:22.518Z,7.10
2024-02-14T22:53:28.186Z,7.93
2024-02-14T22:58:32.716Z,6.07
2024-02-14T23:03:38.697Z,5.80
2024-02-14T23:08:43.190Z,9.43
2024-02-14T23:13:47.560Z,8.63
2024-02-14T23:18:54.617Z,6.33
2024-02-14T23:23:59.168Z,4.97
2024-02-14T23:29:03.688Z,5.77
2024-02-14T23:34:10.002Z,5.73
2024-02-14T23:39:14.601Z,4.93
2024-02-14T23:44:19.129Z,6.70
2024-02-14T23:49:25.180Z,6.27
2024-02-14T23:54:29.799Z,6.73
2024-02-14T23:59:34.327Z,6.53
